sensor_id;sensor_type;location;lat;lon;timestamp;temperature;humidity
12632;DHT22;6381;45.748;12.106;2023-07-13T00:02:20;22.20;99.90
12632;DHT22;6381;45.748;12.106;2023-07-13T00:04:49;22.30;99.90
12632;DHT22;6381;45.748;12.106;2023-07-13T00:07:19;22.60;99.90
12632;DHT22;6381;45.748;12.106;2023-07-13T00:09:48;22.30;99.90
12632;DHT22;6381;45.748;12.106;2023-07-13T00:12:26;21.80;99.90
12632;DHT22;6381;45.748;12.106;2023-07-13T00:14:57;22.00;99.90
12632;DHT22;6381;45.748;12.106;2023-07-13T00:17:28;21.90;99.90
12632;DHT22;6381;45.748;12.106;2023-07-13T00:19:58;21.90;99.90
12632;DHT22;6381;45.748;12.106;2023-07-13T00:22:28;21.90;99.90
12632;DHT22;6381;45.748;12.106;2023-07-13T00:24:58;22.10;99.90
12632;DHT22;6381;45.748;12.106;2023-07-13T00:27:29;22.20;99.90
12632;DHT22;6381;45.748;12.106;2023-07-13T00:29:59;22.30;99.90
12632;DHT22;6381;45.748;12.106;2023-07-13T00:32:30;22.10;99.90
12632;DHT22;6381;45.748;12.106;2023-07-13T00:35:00;21.90;99.90
12632;DHT22;6381;45.748;12.106;2023-07-13T00:37:32;22.50;99.90
12632;DHT22;6381;45.748;12.106;2023-07-13T00:40:04;22.00;99.90
12632;DHT22;6381;45.748;12.106;2023-07-13T00:42:34;22.30;99.90
12632;DHT22;6381;45.748;12.106;2023-07-13T00:45:05;22.30;99.90
12632;DHT22;6381;45.748;12.106;2023-07-13T00:47:35;22.10;99.90
12632;DHT22;6381;45.748;12.106;2023-07-13T00:50:06;21.70;99.90
12632;DHT22;6381;45.748;12.106;2023-07-13T00:52:40;21.40;99.90
12632;DHT22;6381;45.748;12.106;2023-07-13T00:55:11;21.40;99.90
12632;DHT22;6381;45.748;12.106;2023-07-13T00:57:42;21.60;99.90
12632;DHT22;6381;45.748;12.106;2023-07-13T01:00:14;21.60;99.90
12632;DHT22;6381;45.748;12.106;2023-07-13T01:02:45;21.20;99.90
12632;DHT22;6381;45.748;12.106;2023-07-13T01:05:16;21.40;99.90
12632;DHT22;6381;45.748;12.106;2023-07-13T01:07:48;21.60;99.90
12632;DHT22;6381;45.748;12.106;2023-07-13T01:10:21;21.50;99.90
12632;DHT22;6381;45.748;12.106;2023-07-13T01:12:52;21.40;99.90
12632;DHT22;6381;45.748;12.106;2023-07-13T01:15:38;21.20;99.90
12632;DHT22;6381;45.748;12.106;2023-07-13T01:18:09;21.30;99.90
12632;DHT22;6381;45.748;12.106;2023-07-13T01:20:39;21.10;99.90
12632;DHT22;6381;45.748;12.106;2023-07-13T01:23:11;21.30;99.90
12632;DHT22;6381;45.748;12.106;2023-07-13T01:25:40;21.70;99.90
12632;DHT22;6381;45.748;12.106;2023-07-13T01:28:09;21.80;99.90
12632;DHT22;6381;45.748;12.106;2023-07-13T01:30:40;22.80;99.90
12632;DHT22;6381;45.748;12.106;2023-07-13T01:33:09;21.20;99.90
12632;DHT22;6381;45.748;12.106;2023-07-13T01:35:39;21.50;99.90
12632;DHT22;6381;45.748;12.106;2023-07-13T01:38:11;21.70;99.90
12632;DHT22;6381;45.748;12.106;2023-07-13T01:40:41;21.50;99.90
12632;DHT22;6381;45.748;12.106;2023-07-13T01:43:11;21.30;99.90
12632;DHT22;6381;45.748;12.106;2023-07-13T01:45:40;21.40;99.90
12632;DHT22;6381;45.748;12.106;2023-07-13T01:48:13;21.40;99.90
12632;DHT22;6381;45.748;12.106;2023-07-13T01:50:42;21.30;99.90
12632;DHT22;6381;45.748;12.106;2023-07-13T01:53:13;21.40;99.90
12632;DHT22;6381;45.748;12.106;2023-07-13T01:55:42;21.70;99.90
12632;DHT22;6381;45.748;12.106;2023-07-13T01:58:12;21.50;99.90
12632;DHT22;6381;45.748;12.106;2023-07-13T02:00:41;21.20;99.90
12632;DHT22;6381;45.748;12.106;2023-07-13T02:03:10;21.00;99.90
12632;DHT22;6381;45.748;12.106;2023-07-13T02:05:39;21.20;99.90
12632;DHT22;6381;45.748;12.106;2023-07-13T02:08:09;21.30;99.90
12632;DHT22;6381;45.748;12.106;2023-07-13T02:10:39;21.30;99.90
12632;DHT22;6381;45.748;12.106;2023-07-13T02:13:09;21.40;99.90
12632;DHT22;6381;45.748;12.106;2023-07-13T02:15:39;21.30;99.90
12632;DHT22;6381;45.748;12.106;2023-07-13T02:18:10;21.50;99.90
12632;DHT22;6381;45.748;12.106;2023-07-13T02:20:44;21.20;99.90
12632;DHT22;6381;45.748;12.106;2023-07-13T02:23:13;21.00;99.90
12632;DHT22;6381;45.748;12.106;2023-07-13T02:25:44;21.00;99.90
12632;DHT22;6381;45.748;12.106;2023-07-13T02:28:15;21.20;99.90
12632;DHT22;6381;45.748;12.106;2023-07-13T02:30:44;21.50;99.90
12632;DHT22;6381;45.748;12.106;2023-07-13T02:33:14;21.40;99.90
12632;DHT22;6381;45.748;12.106;2023-07-13T02:35:43;21.50;99.90
12632;DHT22;6381;45.748;12.106;2023-07-13T02:38:12;21.50;99.90
12632;DHT22;6381;45.748;12.106;2023-07-13T02:40:46;21.40;99.90
12632;DHT22;6381;45.748;12.106;2023-07-13T02:43:15;21.50;99.90
12632;DHT22;6381;45.748;12.106;2023-07-13T02:45:47;21.30;99.90
12632;DHT22;6381;45.748;12.106;2023-07-13T02:48:17;21.60;99.90
12632;DHT22;6381;45.748;12.106;2023-07-13T02:50:47;21.60;99.90
12632;DHT22;6381;45.748;12.106;2023-07-13T02:53:16;21.40;99.90
12632;DHT22;6381;45.748;12.106;2023-07-13T02:55:46;21.60;99.90
12632;DHT22;6381;45.748;12.106;2023-07-13T02:58:16;21.70;99.90
12632;DHT22;6381;45.748;12.106;2023-07-13T03:00:48;21.80;99.90
12632;DHT22;6381;45.748;12.106;2023-07-13T03:03:17;21.80;99.90
12632;DHT22;6381;45.748;12.106;2023-07-13T03:05:47;21.80;99.90
12632;DHT22;6381;45.748;12.106;2023-07-13T03:08:22;21.50;99.90
12632;DHT22;6381;45.748;12.106;2023-07-13T03:11:00;21.30;99.90
12632;DHT22;6381;45.748;12.106;2023-07-13T03:13:32;21.30;99.90
12632;DHT22;6381;45.748;12.106;2023-07-13T03:16:04;21.60;99.90
12632;DHT22;6381;45.748;12.106;2023-07-13T03:18:36;21.70;99.90
12632;DHT22;6381;45.748;12.106;2023-07-13T03:21:08;21.80;99.90
12632;DHT22;6381;45.748;12.106;2023-07-13T03:23:39;21.70;99.90
12632;DHT22;6381;45.748;12.106;2023-07-13T03:26:13;21.40;99.90
12632;DHT22;6381;45.748;12.106;2023-07-13T03:28:45;21.40;99.90
12632;DHT22;6381;45.748;12.106;2023-07-13T03:31:20;21.40;99.90
12632;DHT22;6381;45.748;12.106;2023-07-13T03:33:51;21.50;99.90
12632;DHT22;6381;45.748;12.106;2023-07-13T03:36:22;21.70;99.90
12632;DHT22;6381;45.748;12.106;2023-07-13T03:38:56;21.70;99.90
12632;DHT22;6381;45.748;12.106;2023-07-13T03:41:35;21.60;99.90
12632;DHT22;6381;45.748;12.106;2023-07-13T03:44:05;21.60;99.90
12632;DHT22;6381;45.748;12.106;2023-07-13T03:46:35;21.70;99.90
12632;DHT22;6381;45.748;12.106;2023-07-13T03:49:05;21.80;99.90
12632;DHT22;6381;45.748;12.106;2023-07-13T03:51:34;21.90;99.90
12632;DHT22;6381;45.748;12.106;2023-07-13T03:54:04;22.00;99.90
12632;DHT22;6381;45.748;12.106;2023-07-13T03:56:35;22.00;99.90
12632;DHT22;6381;45.748;12.106;2023-07-13T03:59:07;22.00;99.90
12632;DHT22;6381;45.748;12.106;2023-07-13T04:01:36;22.20;99.90
12632;DHT22;6381;45.748;12.106;2023-07-13T04:04:05;22.20;99.90
12632;DHT22;6381;45.748;12.106;2023-07-13T04:06:36;22.10;99.90
12632;DHT22;6381;45.748;12.106;2023-07-13T04:09:05;22.20;99.90
12632;DHT22;6381;45.748;12.106;2023-07-13T04:11:37;22.20;99.90
12632;DHT22;6381;45.748;12.106;2023-07-13T04:14:07;22.00;99.90
12632;DHT22;6381;45.748;12.106;2023-07-13T04:16:36;22.20;99.90
12632;DHT22;6381;45.748;12.106;2023-07-13T04:19:05;22.20;99.90
12632;DHT22;6381;45.748;12.106;2023-07-13T04:21:34;22.30;99.90
12632;DHT22;6381;45.748;12.106;2023-07-13T04:24:04;22.30;99.90
12632;DHT22;6381;45.748;12.106;2023-07-13T04:26:33;22.30;99.90
12632;DHT22;6381;45.748;12.106;2023-07-13T04:29:05;22.20;99.90
12632;DHT22;6381;45.748;12.106;2023-07-13T04:31:35;22.40;99.90
12632;DHT22;6381;45.748;12.106;2023-07-13T04:34:04;22.40;99.90
12632;DHT22;6381;45.748;12.106;2023-07-13T04:36:34;22.40;99.90
12632;DHT22;6381;45.748;12.106;2023-07-13T04:39:05;22.60;99.90
12632;DHT22;6381;45.748;12.106;2023-07-13T04:41:35;22.50;99.90
12632;DHT22;6381;45.748;12.106;2023-07-13T04:44:05;22.70;99.90
12632;DHT22;6381;45.748;12.106;2023-07-13T04:46:34;22.60;99.90
12632;DHT22;6381;45.748;12.106;2023-07-13T04:49:05;22.70;99.90
12632;DHT22;6381;45.748;12.106;2023-07-13T04:51:34;22.70;99.90
12632;DHT22;6381;45.748;12.106;2023-07-13T04:54:03;22.70;99.90
12632;DHT22;6381;45.748;12.106;2023-07-13T04:56:32;22.60;99.90
12632;DHT22;6381;45.748;12.106;2023-07-13T04:59:01;22.60;99.90
12632;DHT22;6381;45.748;12.106;2023-07-13T05:01:32;22.90;99.90
12632;DHT22;6381;45.748;12.106;2023-07-13T05:04:01;22.80;99.90
12632;DHT22;6381;45.748;12.106;2023-07-13T05:06:30;22.90;99.90
12632;DHT22;6381;45.748;12.106;2023-07-13T05:08:59;22.90;99.90
12632;DHT22;6381;45.748;12.106;2023-07-13T05:11:28;23.00;99.90
12632;DHT22;6381;45.748;12.106;2023-07-13T05:13:58;22.90;99.90
12632;DHT22;6381;45.748;12.106;2023-07-13T05:16:28;22.90;99.90
12632;DHT22;6381;45.748;12.106;2023-07-13T05:19:01;23.10;99.90
12632;DHT22;6381;45.748;12.106;2023-07-13T05:21:30;23.10;99.90
12632;DHT22;6381;45.748;12.106;2023-07-13T05:23:59;23.20;99.90
12632;DHT22;6381;45.748;12.106;2023-07-13T05:26:48;23.20;99.90
12632;DHT22;6381;45.748;12.106;2023-07-13T05:29:17;23.50;99.90
12632;DHT22;6381;45.748;12.106;2023-07-13T05:31:47;23.30;99.90
12632;DHT22;6381;45.748;12.106;2023-07-13T05:34:17;23.40;99.90
12632;DHT22;6381;45.748;12.106;2023-07-13T05:36:47;23.40;99.90
12632;DHT22;6381;45.748;12.106;2023-07-13T05:39:16;23.30;99.90
12632;DHT22;6381;45.748;12.106;2023-07-13T05:41:46;23.30;99.90
12632;DHT22;6381;45.748;12.106;2023-07-13T05:44:15;23.30;99.90
12632;DHT22;6381;45.748;12.106;2023-07-13T05:46:45;23.30;99.90
12632;DHT22;6381;45.748;12.106;2023-07-13T05:49:14;23.40;99.90
12632;DHT22;6381;45.748;12.106;2023-07-13T05:51:44;23.40;99.90
12632;DHT22;6381;45.748;12.106;2023-07-13T05:54:14;23.10;99.90
12632;DHT22;6381;45.748;12.106;2023-07-13T05:56:45;23.10;99.90
12632;DHT22;6381;45.748;12.106;2023-07-13T05:59:14;23.30;99.90
12632;DHT22;6381;45.748;12.106;2023-07-13T06:01:43;23.20;99.90
12632;DHT22;6381;45.748;12.106;2023-07-13T06:04:12;23.40;99.90
12632;DHT22;6381;45.748;12.106;2023-07-13T06:06:41;23.70;99.90
12632;DHT22;6381;45.748;12.106;2023-07-13T06:09:12;23.90;99.90
12632;DHT22;6381;45.748;12.106;2023-07-13T06:11:41;24.10;99.90
12632;DHT22;6381;45.748;12.106;2023-07-13T06:14:11;24.20;99.90
12632;DHT22;6381;45.748;12.106;2023-07-13T06:16:40;24.00;99.90
12632;DHT22;6381;45.748;12.106;2023-07-13T06:19:09;24.10;99.90
12632;DHT22;6381;45.748;12.106;2023-07-13T06:21:38;24.00;99.90
12632;DHT22;6381;45.748;12.106;2023-07-13T06:24:08;24.30;99.90
12632;DHT22;6381;45.748;12.106;2023-07-13T06:26:38;24.40;99.90
12632;DHT22;6381;45.748;12.106;2023-07-13T06:29:07;24.00;99.90
12632;DHT22;6381;45.748;12.106;2023-07-13T06:31:36;24.20;99.90
12632;DHT22;6381;45.748;12.106;2023-07-13T06:34:06;23.90;99.90
12632;DHT22;6381;45.748;12.106;2023-07-13T06:36:35;23.90;99.90
12632;DHT22;6381;45.748;12.106;2023-07-13T06:39:06;24.10;99.90
12632;DHT22;6381;45.748;12.106;2023-07-13T06:41:36;24.20;99.90
12632;DHT22;6381;45.748;12.106;2023-07-13T06:44:11;24.20;99.90
12632;DHT22;6381;45.748;12.106;2023-07-13T06:46:40;24.30;99.90
12632;DHT22;6381;45.748;12.106;2023-07-13T06:49:09;24.60;99.90
12632;DHT22;6381;45.748;12.106;2023-07-13T06:51:38;24.60;99.00
12632;DHT22;6381;45.748;12.106;2023-07-13T06:54:08;24.60;99.80
12632;DHT22;6381;45.748;12.106;2023-07-13T06:56:37;24.70;99.20
12632;DHT22;6381;45.748;12.106;2023-07-13T06:59:06;24.80;99.80
12632;DHT22;6381;45.748;12.106;2023-07-13T07:01:36;25.00;99.90
12632;DHT22;6381;45.748;12.106;2023-07-13T07:04:08;25.00;98.70
12632;DHT22;6381;45.748;12.106;2023-07-13T07:06:37;24.80;99.10
12632;DHT22;6381;45.748;12.106;2023-07-13T07:09:06;24.70;99.90
12632;DHT22;6381;45.748;12.106;2023-07-13T07:11:36;24.70;99.80
12632;DHT22;6381;45.748;12.106;2023-07-13T07:14:25;24.50;99.70
12632;DHT22;6381;45.748;12.106;2023-07-13T07:16:56;24.30;97.80
12632;DHT22;6381;45.748;12.106;2023-07-13T07:19:27;24.20;99.00
12632;DHT22;6381;45.748;12.106;2023-07-13T07:21:56;24.60;99.20
12632;DHT22;6381;45.748;12.106;2023-07-13T07:24:25;24.80;98.20
12632;DHT22;6381;45.748;12.106;2023-07-13T07:26:54;24.80;99.00
12632;DHT22;6381;45.748;12.106;2023-07-13T07:29:26;24.90;99.30
12632;DHT22;6381;45.748;12.106;2023-07-13T07:32:02;24.80;99.40
12632;DHT22;6381;45.748;12.106;2023-07-13T07:34:51;24.80;99.40
12632;DHT22;6381;45.748;12.106;2023-07-13T07:37:20;24.80;99.30
12632;DHT22;6381;45.748;12.106;2023-07-13T07:40:10;25.10;99.60
12632;DHT22;6381;45.748;12.106;2023-07-13T07:42:42;24.90;99.30
12632;DHT22;6381;45.748;12.106;2023-07-13T07:45:11;24.70;99.60
12632;DHT22;6381;45.748;12.106;2023-07-13T07:47:42;24.80;99.60
12632;DHT22;6381;45.748;12.106;2023-07-13T07:50:12;25.00;98.70
12632;DHT22;6381;45.748;12.106;2023-07-13T07:52:41;25.00;99.20
12632;DHT22;6381;45.748;12.106;2023-07-13T07:55:11;25.10;97.70
12632;DHT22;6381;45.748;12.106;2023-07-13T07:57:44;25.20;97.20
12632;DHT22;6381;45.748;12.106;2023-07-13T08:00:16;25.10;96.50
12632;DHT22;6381;45.748;12.106;2023-07-13T08:02:50;25.10;97.30
12632;DHT22;6381;45.748;12.106;2023-07-13T08:05:22;25.10;97.30
12632;DHT22;6381;45.748;12.106;2023-07-13T08:08:09;25.10;97.70
12632;DHT22;6381;45.748;12.106;2023-07-13T08:10:38;25.10;97.70
12632;DHT22;6381;45.748;12.106;2023-07-13T08:13:07;25.40;98.10
12632;DHT22;6381;45.748;12.106;2023-07-13T08:15:38;25.30;97.40
12632;DHT22;6381;45.748;12.106;2023-07-13T08:18:09;25.30;97.50
12632;DHT22;6381;45.748;12.106;2023-07-13T08:20:39;25.30;97.10
12632;DHT22;6381;45.748;12.106;2023-07-13T08:23:10;25.50;96.80
12632;DHT22;6381;45.748;12.106;2023-07-13T08:25:40;25.50;96.50
12632;DHT22;6381;45.748;12.106;2023-07-13T08:28:09;25.50;96.90
12632;DHT22;6381;45.748;12.106;2023-07-13T08:30:38;25.50;96.80
12632;DHT22;6381;45.748;12.106;2023-07-13T08:33:09;25.80;97.10
12632;DHT22;6381;45.748;12.106;2023-07-13T08:35:38;25.70;97.10
12632;DHT22;6381;45.748;12.106;2023-07-13T08:38:08;25.40;97.20
12632;DHT22;6381;45.748;12.106;2023-07-13T08:40:39;25.20;97.40
12632;DHT22;6381;45.748;12.106;2023-07-13T08:43:15;25.10;97.40
12632;DHT22;6381;45.748;12.106;2023-07-13T08:45:48;25.10;97.50
12632;DHT22;6381;45.748;12.106;2023-07-13T08:48:25;25.10;97.80
12632;DHT22;6381;45.748;12.106;2023-07-13T08:50:58;25.40;97.20
12632;DHT22;6381;45.748;12.106;2023-07-13T08:53:33;25.40;97.40
12632;DHT22;6381;45.748;12.106;2023-07-13T08:56:07;25.30;97.00
12632;DHT22;6381;45.748;12.106;2023-07-13T08:58:40;25.40;97.30
12632;DHT22;6381;45.748;12.106;2023-07-13T09:01:17;25.60;97.10
12632;DHT22;6381;45.748;12.106;2023-07-13T09:03:55;25.50;96.50
12632;DHT22;6381;45.748;12.106;2023-07-13T09:06:34;25.50;97.20
12632;DHT22;6381;45.748;12.106;2023-07-13T09:09:09;25.40;97.10
12632;DHT22;6381;45.748;12.106;2023-07-13T09:11:46;25.30;96.80
12632;DHT22;6381;45.748;12.106;2023-07-13T09:14:39;25.40;97.30
12632;DHT22;6381;45.748;12.106;2023-07-13T09:17:17;25.50;96.90
12632;DHT22;6381;45.748;12.106;2023-07-13T09:19:53;25.20;97.10
12632;DHT22;6381;45.748;12.106;2023-07-13T09:22:24;25.30;97.50
12632;DHT22;6381;45.748;12.106;2023-07-13T09:25:02;25.20;98.40
12632;DHT22;6381;45.748;12.106;2023-07-13T09:27:36;25.30;98.30
12632;DHT22;6381;45.748;12.106;2023-07-13T09:30:30;25.30;98.50
12632;DHT22;6381;45.748;12.106;2023-07-13T09:33:00;25.30;99.00
12632;DHT22;6381;45.748;12.106;2023-07-13T09:35:30;25.20;99.30
12632;DHT22;6381;45.748;12.106;2023-07-13T09:38:11;25.20;99.60
12632;DHT22;6381;45.748;12.106;2023-07-13T09:40:47;25.30;99.00
12632;DHT22;6381;45.748;12.106;2023-07-13T09:43:20;25.20;98.90
12632;DHT22;6381;45.748;12.106;2023-07-13T09:45:50;25.30;99.50
12632;DHT22;6381;45.748;12.106;2023-07-13T09:48:19;25.20;99.70
12632;DHT22;6381;45.748;12.106;2023-07-13T09:50:55;25.20;99.70
12632;DHT22;6381;45.748;12.106;2023-07-13T09:53:31;25.20;99.90
12632;DHT22;6381;45.748;12.106;2023-07-13T09:56:00;25.20;99.90
12632;DHT22;6381;45.748;12.106;2023-07-13T09:58:30;25.20;99.50
12632;DHT22;6381;45.748;12.106;2023-07-13T10:01:03;25.20;99.50
12632;DHT22;6381;45.748;12.106;2023-07-13T10:03:36;25.30;99.90
12632;DHT22;6381;45.748;12.106;2023-07-13T10:06:14;25.40;99.90
12632;DHT22;6381;45.748;12.106;2023-07-13T10:08:45;25.40;99.90
12632;DHT22;6381;45.748;12.106;2023-07-13T10:11:19;25.50;99.90
12632;DHT22;6381;45.748;12.106;2023-07-13T10:13:54;25.40;99.70
12632;DHT22;6381;45.748;12.106;2023-07-13T10:16:26;25.30;99.20
12632;DHT22;6381;45.748;12.106;2023-07-13T10:19:00;25.40;98.90
12632;DHT22;6381;45.748;12.106;2023-07-13T10:21:35;25.30;98.70
12632;DHT22;6381;45.748;12.106;2023-07-13T10:24:17;25.40;98.90
12632;DHT22;6381;45.748;12.106;2023-07-13T10:26:53;25.40;98.10
12632;DHT22;6381;45.748;12.106;2023-07-13T10:29:25;25.60;97.80
12632;DHT22;6381;45.748;12.106;2023-07-13T10:31:55;25.60;96.30
12632;DHT22;6381;45.748;12.106;2023-07-13T10:34:25;25.70;96.30
12632;DHT22;6381;45.748;12.106;2023-07-13T10:36:55;25.90;96.30
12632;DHT22;6381;45.748;12.106;2023-07-13T10:39:27;25.80;95.30
12632;DHT22;6381;45.748;12.106;2023-07-13T10:42:00;26.10;95.50
12632;DHT22;6381;45.748;12.106;2023-07-13T10:44:32;26.10;95.40
12632;DHT22;6381;45.748;12.106;2023-07-13T10:47:03;26.10;95.30
12632;DHT22;6381;45.748;12.106;2023-07-13T10:49:34;26.80;95.40
12632;DHT22;6381;45.748;12.106;2023-07-13T10:52:17;27.10;93.70
12632;DHT22;6381;45.748;12.106;2023-07-13T10:54:55;27.40;93.00
12632;DHT22;6381;45.748;12.106;2023-07-13T10:57:24;27.80;92.50
12632;DHT22;6381;45.748;12.106;2023-07-13T11:00:14;28.40;94.10
12632;DHT22;6381;45.748;12.106;2023-07-13T11:02:56;28.40;94.20
12632;DHT22;6381;45.748;12.106;2023-07-13T11:05:30;28.80;94.00
12632;DHT22;6381;45.748;12.106;2023-07-13T11:08:16;29.00;93.10
12632;DHT22;6381;45.748;12.106;2023-07-13T11:10:50;29.10;86.60
12632;DHT22;6381;45.748;12.106;2023-07-13T11:13:39;29.30;79.50
12632;DHT22;6381;45.748;12.106;2023-07-13T11:16:36;29.70;78.90
12632;DHT22;6381;45.748;12.106;2023-07-13T11:19:28;29.60;78.00
12632;DHT22;6381;45.748;12.106;2023-07-13T11:22:15;29.70;80.30
12632;DHT22;6381;45.748;12.106;2023-07-13T11:24:57;29.90;76.80
12632;DHT22;6381;45.748;12.106;2023-07-13T11:27:39;29.80;76.90
12632;DHT22;6381;45.748;12.106;2023-07-13T11:30:22;29.70;71.50
12632;DHT22;6381;45.748;12.106;2023-07-13T11:33:03;29.80;75.00
12632;DHT22;6381;45.748;12.106;2023-07-13T11:35:37;29.10;67.70
12632;DHT22;6381;45.748;12.106;2023-07-13T11:38:15;29.60;70.10
12632;DHT22;6381;45.748;12.106;2023-07-13T11:40:55;30.00;70.00
12632;DHT22;6381;45.748;12.106;2023-07-13T11:43:28;30.00;70.10
12632;DHT22;6381;45.748;12.106;2023-07-13T11:46:15;29.90;70.40
12632;DHT22;6381;45.748;12.106;2023-07-13T11:48:49;29.90;64.50
12632;DHT22;6381;45.748;12.106;2023-07-13T11:51:26;29.30;66.60
12632;DHT22;6381;45.748;12.106;2023-07-13T11:54:22;29.40;69.60
12632;DHT22;6381;45.748;12.106;2023-07-13T11:56:57;29.80;69.80
12632;DHT22;6381;45.748;12.106;2023-07-13T11:59:30;29.70;69.90
12632;DHT22;6381;45.748;12.106;2023-07-13T12:02:08;29.90;71.60
12632;DHT22;6381;45.748;12.106;2023-07-13T12:04:44;30.10;70.20
12632;DHT22;6381;45.748;12.106;2023-07-13T12:07:17;30.00;68.30
12632;DHT22;6381;45.748;12.106;2023-07-13T12:09:46;29.60;64.60
12632;DHT22;6381;45.748;12.106;2023-07-13T12:12:22;29.10;64.80
12632;DHT22;6381;45.748;12.106;2023-07-13T12:14:52;28.70;66.40
12632;DHT22;6381;45.748;12.106;2023-07-13T12:17:24;29.10;66.70
12632;DHT22;6381;45.748;12.106;2023-07-13T12:19:58;29.50;65.40
12632;DHT22;6381;45.748;12.106;2023-07-13T12:22:27;29.10;65.50
12632;DHT22;6381;45.748;12.106;2023-07-13T12:24:56;29.60;70.10
12632;DHT22;6381;45.748;12.106;2023-07-13T12:27:27;29.80;71.10
12632;DHT22;6381;45.748;12.106;2023-07-13T12:30:00;30.80;67.60
12632;DHT22;6381;45.748;12.106;2023-07-13T12:32:29;31.60;63.40
12632;DHT22;6381;45.748;12.106;2023-07-13T12:35:12;31.80;63.50
12632;DHT22;6381;45.748;12.106;2023-07-13T12:37:42;31.70;61.00
12632;DHT22;6381;45.748;12.106;2023-07-13T12:40:13;30.90;60.00
12632;DHT22;6381;45.748;12.106;2023-07-13T12:42:46;31.00;61.90
12632;DHT22;6381;45.748;12.106;2023-07-13T12:45:18;30.70;59.70
12632;DHT22;6381;45.748;12.106;2023-07-13T12:47:53;30.30;63.50
12632;DHT22;6381;45.748;12.106;2023-07-13T12:50:23;30.70;64.20
12632;DHT22;6381;45.748;12.106;2023-07-13T12:53:01;30.90;67.50
12632;DHT22;6381;45.748;12.106;2023-07-13T12:55:31;31.00;67.00
12632;DHT22;6381;45.748;12.106;2023-07-13T12:58:04;31.60;66.60
12632;DHT22;6381;45.748;12.106;2023-07-13T13:00:36;32.30;64.50
12632;DHT22;6381;45.748;12.106;2023-07-13T13:03:15;31.60;61.10
12632;DHT22;6381;45.748;12.106;2023-07-13T13:06:00;32.10;66.40
12632;DHT22;6381;45.748;12.106;2023-07-13T13:08:31;32.10;66.10
12632;DHT22;6381;45.748;12.106;2023-07-13T13:11:00;32.40;64.10
12632;DHT22;6381;45.748;12.106;2023-07-13T13:13:30;32.80;65.60
12632;DHT22;6381;45.748;12.106;2023-07-13T13:16:02;32.60;62.10
12632;DHT22;6381;45.748;12.106;2023-07-13T13:18:33;32.50;62.00
12632;DHT22;6381;45.748;12.106;2023-07-13T13:21:03;33.10;63.60
12632;DHT22;6381;45.748;12.106;2023-07-13T13:23:32;33.40;62.10
12632;DHT22;6381;45.748;12.106;2023-07-13T13:26:01;33.20;61.00
12632;DHT22;6381;45.748;12.106;2023-07-13T13:28:31;32.60;60.90
12632;DHT22;6381;45.748;12.106;2023-07-13T13:31:01;33.30;59.10
12632;DHT22;6381;45.748;12.106;2023-07-13T13:33:29;33.50;61.00
12632;DHT22;6381;45.748;12.106;2023-07-13T13:35:58;32.60;60.20
12632;DHT22;6381;45.748;12.106;2023-07-13T13:38:28;32.70;62.40
12632;DHT22;6381;45.748;12.106;2023-07-13T13:40:57;32.70;59.60
12632;DHT22;6381;45.748;12.106;2023-07-13T13:43:26;33.00;59.40
12632;DHT22;6381;45.748;12.106;2023-07-13T13:45:59;33.50;59.70
12632;DHT22;6381;45.748;12.106;2023-07-13T13:48:36;33.40;57.20
12632;DHT22;6381;45.748;12.106;2023-07-13T13:51:15;33.60;56.90
12632;DHT22;6381;45.748;12.106;2023-07-13T13:53:50;31.60;57.00
12632;DHT22;6381;45.748;12.106;2023-07-13T13:56:21;30.80;58.90
12632;DHT22;6381;45.748;12.106;2023-07-13T13:58:53;30.30;61.70
12632;DHT22;6381;45.748;12.106;2023-07-13T14:01:31;30.00;63.20
12632;DHT22;6381;45.748;12.106;2023-07-13T14:04:00;29.90;63.30
12632;DHT22;6381;45.748;12.106;2023-07-13T14:06:29;29.90;65.10
12632;DHT22;6381;45.748;12.106;2023-07-13T14:08:57;29.90;67.30
12632;DHT22;6381;45.748;12.106;2023-07-13T14:11:27;29.60;65.40
12632;DHT22;6381;45.748;12.106;2023-07-13T14:13:59;29.50;70.70
12632;DHT22;6381;45.748;12.106;2023-07-13T14:16:34;29.40;68.50
12632;DHT22;6381;45.748;12.106;2023-07-13T14:19:03;29.10;68.90
12632;DHT22;6381;45.748;12.106;2023-07-13T14:21:32;28.90;70.00
12632;DHT22;6381;45.748;12.106;2023-07-13T14:24:00;28.90;74.50
12632;DHT22;6381;45.748;12.106;2023-07-13T14:26:32;28.80;75.70
12632;DHT22;6381;45.748;12.106;2023-07-13T14:29:05;28.60;74.60
12632;DHT22;6381;45.748;12.106;2023-07-13T14:31:40;28.40;77.00
12632;DHT22;6381;45.748;12.106;2023-07-13T14:34:10;28.40;76.80
12632;DHT22;6381;45.748;12.106;2023-07-13T14:36:42;28.50;77.20
12632;DHT22;6381;45.748;12.106;2023-07-13T14:39:14;28.50;79.70
12632;DHT22;6381;45.748;12.106;2023-07-13T14:41:44;28.40;79.70
12632;DHT22;6381;45.748;12.106;2023-07-13T14:44:14;28.40;82.40
12632;DHT22;6381;45.748;12.106;2023-07-13T14:46:45;28.40;83.30
12632;DHT22;6381;45.748;12.106;2023-07-13T14:49:28;28.30;83.60
12632;DHT22;6381;45.748;12.106;2023-07-13T14:52:13;28.20;86.30
12632;DHT22;6381;45.748;12.106;2023-07-13T14:54:42;28.00;89.60
12632;DHT22;6381;45.748;12.106;2023-07-13T14:57:14;27.90;91.40
12632;DHT22;6381;45.748;12.106;2023-07-13T14:59:43;27.90;92.20
12632;DHT22;6381;45.748;12.106;2023-07-13T15:02:24;27.90;92.10
12632;DHT22;6381;45.748;12.106;2023-07-13T15:04:55;27.60;93.00
12632;DHT22;6381;45.748;12.106;2023-07-13T15:07:24;27.50;94.00
12632;DHT22;6381;45.748;12.106;2023-07-13T15:09:53;27.50;94.70
12632;DHT22;6381;45.748;12.106;2023-07-13T15:12:22;27.50;95.60
12632;DHT22;6381;45.748;12.106;2023-07-13T15:14:51;27.30;98.10
12632;DHT22;6381;45.748;12.106;2023-07-13T15:17:26;26.70;99.90
12632;DHT22;6381;45.748;12.106;2023-07-13T15:19:56;26.20;99.90
12632;DHT22;6381;45.748;12.106;2023-07-13T15:22:25;26.00;99.90
12632;DHT22;6381;45.748;12.106;2023-07-13T15:24:54;25.90;99.90
12632;DHT22;6381;45.748;12.106;2023-07-13T15:27:27;25.60;99.90
12632;DHT22;6381;45.748;12.106;2023-07-13T15:29:56;25.40;99.90
12632;DHT22;6381;45.748;12.106;2023-07-13T15:32:26;25.60;99.90
12632;DHT22;6381;45.748;12.106;2023-07-13T15:34:55;25.60;99.90
12632;DHT22;6381;45.748;12.106;2023-07-13T15:37:23;25.50;99.90
12632;DHT22;6381;45.748;12.106;2023-07-13T15:39:55;25.50;99.90
12632;DHT22;6381;45.748;12.106;2023-07-13T15:42:23;25.50;99.90
12632;DHT22;6381;45.748;12.106;2023-07-13T15:44:53;25.50;99.90
12632;DHT22;6381;45.748;12.106;2023-07-13T15:47:21;25.40;99.90
12632;DHT22;6381;45.748;12.106;2023-07-13T15:49:52;25.20;99.90
12632;DHT22;6381;45.748;12.106;2023-07-13T15:52:23;24.90;99.90
12632;DHT22;6381;45.748;12.106;2023-07-13T15:55:00;24.80;99.90
12632;DHT22;6381;45.748;12.106;2023-07-13T15:57:29;25.10;99.90
12632;DHT22;6381;45.748;12.106;2023-07-13T15:59:58;25.20;99.90
12632;DHT22;6381;45.748;12.106;2023-07-13T16:02:27;25.30;99.90